createdAt,value
2022-08-18T00:01:45.087Z,18.24
2022-08-18T00:04:33.081Z,18.15
2022-08-18T00:06:50.725Z,18.04
2022-08-18T00:09:12.348Z,18.04
2022-08-18T00:11:41.097Z,18.22
2022-08-18T00:14:03.858Z,18.14
2022-08-18T00:16:25.404Z,18.08
2022-08-18T00:18:46.825Z,18.00
2022-08-18T00:21:08.305Z,18.01
2022-08-18T00:23:32.503Z,18.00
2022-08-18T00:25:55.315Z,18.00
2022-08-18T00:28:16.794Z,18.08
2022-08-18T00:30:38.372Z,18.18
2022-08-18T00:33:01.193Z,18.13
2022-08-18T00:35:37.773Z,18.09
2022-08-18T00:38:01.607Z,18.11
2022-08-18T00:40:38.286Z,18.08
2022-08-18T00:43:04.073Z,18.23
2022-08-18T00:45:32.955Z,18.09
2022-08-18T00:47:55.077Z,18.01
2022-08-18T00:50:22.467Z,18.00
2022-08-18T00:52:52.501Z,18.11
2022-08-18T00:55:15.190Z,18.12
2022-08-18T00:57:36.716Z,18.08
2022-08-18T01:00:09.782Z,17.99
2022-08-18T01:02:37.809Z,17.94
2022-08-18T01:05:06.551Z,17.94
2022-08-18T01:07:36.358Z,18.05
2022-08-18T01:09:59.780Z,18.00
2022-08-18T01:12:46.360Z,18.01
2022-08-18T01:15:03.138Z,18.09
2022-08-18T01:17:44.405Z,18.11
2022-08-18T01:20:24.852Z,18.14
2022-08-18T01:22:49.299Z,18.04
2022-08-18T01:25:29.591Z,18.09
2022-08-18T01:27:51.505Z,18.22
2022-08-18T01:30:17.429Z,18.08
2022-08-18T01:32:40.787Z,18.09
2022-08-18T01:35:02.744Z,18.20
2022-08-18T01:37:24.924Z,18.25
2022-08-18T01:41:23.494Z,18.17
2022-08-18T01:42:28.967Z,18.19
2022-08-18T01:44:51.401Z,18.18
2022-08-18T01:47:12.864Z,18.21
2022-08-18T01:49:34.876Z,18.35
2022-08-18T01:51:56.330Z,18.30
2022-08-18T01:54:17.814Z,18.20
2022-08-18T01:56:41.015Z,18.15
2022-08-18T01:59:02.506Z,18.18
2022-08-18T02:01:36.450Z,18.22
2022-08-18T02:04:31.045Z,18.25
2022-08-18T02:06:42.363Z,18.30
2022-08-18T02:09:09.415Z,18.38
2022-08-18T02:11:31.189Z,18.52
2022-08-18T02:13:53.187Z,18.47
2022-08-18T02:16:14.799Z,18.41
2022-08-18T02:18:48.304Z,18.40
2022-08-18T02:21:19.089Z,18.30
2022-08-18T02:23:44.937Z,18.29
2022-08-18T02:26:17.783Z,18.29
2022-08-18T02:28:40.616Z,18.36
2022-08-18T02:31:11.344Z,18.42
2022-08-18T02:33:33.890Z,18.52
2022-08-18T02:35:55.594Z,18.51
2022-08-18T02:38:17.411Z,18.42
2022-08-18T02:40:39.385Z,18.48
2022-08-18T02:43:06.925Z,18.44
2022-08-18T02:45:29.002Z,18.33
2022-08-18T02:47:54.676Z,18.28
2022-08-18T02:50:16.934Z,18.32
2022-08-18T02:52:39.411Z,18.41
2022-08-18T02:55:02.442Z,18.51
2022-08-18T02:57:23.904Z,18.45
2022-08-18T02:59:46.918Z,18.49
2022-08-18T03:02:10.267Z,18.57
2022-08-18T03:04:32.409Z,18.52
2022-08-18T03:06:55.231Z,18.54
2022-08-18T03:09:18.480Z,18.45
2022-08-18T03:11:40.530Z,18.47
2022-08-18T03:14:05.650Z,18.53
2022-08-18T03:16:31.135Z,18.63
2022-08-18T03:18:53.714Z,18.58
2022-08-18T03:21:24.049Z,18.61
2022-08-18T03:23:45.586Z,18.51
2022-08-18T03:26:24.696Z,18.50
2022-08-18T03:28:48.762Z,18.43
2022-08-18T03:31:11.866Z,18.41
2022-08-18T03:33:33.813Z,18.41
2022-08-18T03:35:55.259Z,18.49
2022-08-18T03:38:16.866Z,18.51
2022-08-18T03:40:38.398Z,18.53
2022-08-18T03:43:06.389Z,18.57
2022-08-18T03:45:47.810Z,18.62
2022-08-18T03:48:11.015Z,18.57
2022-08-18T03:50:32.689Z,18.62
2022-08-18T03:52:54.304Z,18.59
2022-08-18T03:55:16.284Z,18.54
2022-08-18T03:57:39.073Z,18.56
2022-08-18T04:00:01.042Z,18.60
2022-08-18T04:02:23.915Z,18.69
2022-08-18T04:04:45.421Z,18.55
2022-08-18T04:07:14.304Z,18.51
2022-08-18T04:09:38.228Z,18.51
2022-08-18T04:12:06.947Z,18.53
2022-08-18T04:14:32.391Z,18.55
2022-08-18T04:16:53.938Z,18.59
2022-08-18T04:19:26.554Z,18.67
2022-08-18T04:21:53.115Z,18.68
2022-08-18T04:24:14.735Z,18.61
2022-08-18T04:26:39.553Z,18.55
2022-08-18T04:29:01.721Z,18.57
2022-08-18T04:31:24.794Z,18.61
2022-08-18T04:33:46.273Z,18.52
2022-08-18T04:36:20.685Z,18.50
2022-08-18T04:38:42.688Z,18.55
2022-08-18T04:41:05.506Z,18.61
2022-08-18T04:43:27.110Z,18.66
2022-08-18T04:45:50.666Z,18.61
2022-08-18T04:48:13.518Z,18.59
2022-08-18T04:50:37.071Z,18.58
2022-08-18T04:53:17.214Z,18.62
2022-08-18T04:55:38.636Z,18.66
2022-08-18T04:58:00.824Z,18.61
2022-08-18T05:00:22.302Z,18.67
2022-08-18T05:02:43.973Z,18.68
2022-08-18T05:05:06.394Z,18.67
2022-08-18T05:07:27.878Z,18.58
2022-08-18T05:09:49.784Z,18.59
2022-08-18T05:12:14.229Z,18.63
2022-08-18T05:14:36.236Z,18.70
2022-08-18T05:17:01.703Z,18.75
2022-08-18T05:19:26.686Z,18.84
2022-08-18T05:21:51.605Z,18.88
2022-08-18T05:24:13.730Z,18.97
2022-08-18T05:26:36.736Z,19.10
2022-08-18T05:29:17.798Z,19.15
2022-08-18T05:31:40.391Z,19.15
2022-08-18T05:34:04.036Z,19.27
2022-08-18T05:36:25.411Z,19.22
2022-08-18T05:38:58.726Z,19.29
2022-08-18T05:41:29.943Z,19.26
2022-08-18T05:43:52.543Z,19.30
2022-08-18T05:46:14.213Z,19.37
2022-08-18T05:48:42.735Z,19.44
2022-08-18T05:51:19.957Z,19.58
2022-08-18T05:54:06.125Z,19.70
2022-08-18T05:56:47.649Z,19.70
2022-08-18T05:59:11.020Z,19.89
2022-08-18T06:01:42.565Z,19.92
2022-08-18T06:04:26.461Z,20.00
2022-08-18T06:06:49.337Z,20.10
2022-08-18T06:09:17.558Z,20.21
2022-08-18T06:11:39.229Z,20.27
2022-08-18T06:14:01.388Z,20.33
2022-08-18T06:16:29.716Z,20.33
2022-08-18T06:18:59.438Z,20.29
2022-08-18T06:21:59.464Z,20.32
2022-08-18T06:24:24.577Z,20.29
2022-08-18T06:27:03.627Z,20.31
2022-08-18T06:29:47.263Z,20.44
2022-08-18T06:32:36.947Z,20.64
2022-08-18T06:35:18.538Z,20.57
2022-08-18T06:38:25.595Z,20.73
2022-08-18T06:40:48.631Z,20.85
2022-08-18T06:43:15.867Z,21.00
2022-08-18T06:45:40.083Z,21.11
2022-08-18T06:48:12.673Z,21.26
2022-08-18T06:50:46.721Z,21.17
2022-08-18T06:53:26.420Z,21.20
2022-08-18T06:55:50.612Z,21.32
2022-08-18T06:58:32.707Z,21.42
2022-08-18T07:01:05.796Z,21.53
2022-08-18T07:03:47.956Z,21.72
2022-08-18T07:06:24.580Z,21.90
2022-08-18T07:08:51.820Z,21.93
2022-08-18T07:11:23.115Z,21.87
2022-08-18T07:14:09.441Z,21.91
2022-08-18T07:16:57.817Z,22.00
2022-08-18T07:19:29.425Z,22.11
2022-08-18T07:25:34.624Z,22.13
2022-08-18T07:28:08.234Z,22.12
2022-08-18T07:30:54.810Z,22.16
2022-08-18T07:33:32.127Z,22.26
2022-08-18T07:36:07.818Z,22.37
2022-08-18T07:38:43.163Z,22.38
2022-08-18T07:41:37.017Z,22.28
2022-08-18T07:44:28.999Z,22.26
2022-08-18T07:47:02.333Z,22.30
2022-08-18T07:52:43.834Z,22.51
2022-08-18T08:01:45.557Z,22.75
2022-08-18T08:04:27.042Z,22.73
2022-08-18T08:07:22.515Z,22.70
2022-08-18T08:09:36.748Z,22.73
2022-08-18T08:12:11.155Z,22.77
2022-08-18T08:14:32.553Z,22.84
2022-08-18T08:17:30.484Z,22.86
2022-08-18T08:20:11.226Z,22.92
2022-08-18T08:22:52.967Z,22.94
2022-08-18T08:25:46.267Z,22.91
2022-08-18T08:28:42.770Z,22.87
2022-08-18T08:31:33.314Z,22.86
2022-08-18T08:34:06.018Z,22.82
2022-08-18T08:36:33.394Z,22.74
2022-08-18T08:38:57.024Z,22.71
2022-08-18T08:41:32.664Z,22.64
2022-08-18T08:44:20.777Z,22.62
2022-08-18T08:46:50.358Z,22.63
2022-08-18T08:49:28.881Z,22.75
2022-08-18T08:51:57.984Z,22.87
2022-08-18T08:54:24.778Z,22.72
2022-08-18T08:56:49.721Z,22.55
2022-08-18T08:59:15.215Z,22.51
2022-08-18T09:01:54.939Z,22.48
2022-08-18T09:04:37.706Z,22.44
2022-08-18T09:07:30.352Z,22.37
2022-08-18T09:10:24.632Z,22.34
2022-08-18T09:13:05.459Z,22.47
2022-08-18T09:15:58.332Z,22.46
2022-08-18T09:18:44.969Z,22.52
2022-08-18T09:21:34.459Z,22.57
2022-08-18T09:28:10.060Z,22.54
2022-08-18T09:30:53.730Z,22.89
2022-08-18T09:33:20.648Z,22.99
2022-08-18T09:35:54.924Z,23.07
2022-08-18T09:38:42.424Z,23.12
2022-08-18T09:41:32.886Z,23.28
2022-08-18T09:44:11.840Z,23.35
2022-08-18T09:46:43.837Z,23.49
2022-08-18T09:49:26.433Z,23.58
2022-08-18T09:51:50.438Z,23.78
2022-08-18T09:54:20.840Z,23.82
2022-08-18T09:56:53.964Z,23.82
2022-08-18T09:59:37.056Z,23.87
2022-08-18T10:02:06.510Z,24.06
2022-08-18T10:04:51.328Z,24.19
2022-08-18T10:07:38.773Z,24.30
2022-08-18T10:11:00.827Z,24.33
2022-08-18T10:13:33.920Z,24.27
2022-08-18T10:16:22.218Z,24.30
2022-08-18T10:19:15.088Z,24.31
2022-08-18T10:21:55.994Z,24.38
2022-08-18T10:24:36.918Z,24.50
2022-08-18T10:27:02.598Z,24.71
2022-08-18T10:29:32.278Z,24.80
2022-08-18T10:31:57.646Z,24.82
2022-08-18T10:34:51.416Z,24.89
2022-08-18T10:37:20.084Z,25.02
2022-08-18T10:39:52.935Z,25.33
2022-08-18T10:45:36.596Z,25.41
2022-08-18T10:48:16.882Z,25.53
2022-08-18T10:50:48.976Z,25.58
2022-08-18T10:53:39.161Z,25.79
2022-08-18T10:56:26.848Z,25.81
2022-08-18T10:59:28.217Z,26.16
2022-08-18T11:02:32.050Z,26.23
2022-08-18T11:07:42.932Z,25.73
2022-08-18T11:10:30.570Z,25.84
2022-08-18T11:13:17.928Z,25.90
2022-08-18T11:15:52.466Z,25.81
2022-08-18T11:18:32.647Z,25.85
2022-08-18T11:21:42.852Z,25.86
2022-08-18T11:24:27.122Z,25.95
2022-08-18T11:26:54.767Z,25.98
2022-08-18T11:29:29.003Z,25.80
2022-08-18T11:32:12.197Z,25.65
2022-08-18T11:34:53.073Z,25.55
2022-08-18T11:37:49.550Z,25.47
2022-08-18T11:41:08.674Z,25.35
2022-08-18T11:43:23.850Z,25.27
2022-08-18T11:45:48.180Z,25.34
2022-08-18T11:48:15.588Z,25.19
2022-08-18T11:51:01.857Z,25.34
2022-08-18T11:53:36.005Z,25.28
2022-08-18T11:56:30.538Z,25.42
2022-08-18T11:59:52.340Z,25.60
2022-08-18T12:02:21.408Z,25.98
2022-08-18T12:04:45.557Z,26.11
2022-08-18T12:07:11.460Z,26.49
2022-08-18T12:10:17.917Z,26.64
2022-08-18T12:15:43.435Z,26.93
2022-08-18T12:18:06.387Z,27.00
2022-08-18T12:20:28.329Z,27.05
2022-08-18T12:22:51.772Z,27.45
2022-08-18T12:25:16.343Z,27.76
2022-08-18T12:27:47.155Z,27.67
2022-08-18T12:30:16.806Z,27.86
2022-08-18T12:32:48.879Z,28.25
2022-08-18T12:35:12.253Z,28.36
2022-08-18T12:40:15.258Z,28.48
2022-08-18T12:42:37.068Z,28.60
2022-08-18T12:44:58.558Z,28.36
2022-08-18T12:47:23.038Z,28.24
2022-08-18T12:49:44.545Z,28.11
2022-08-18T12:52:06.999Z,27.91
2022-08-18T12:54:35.900Z,27.81
2022-08-18T12:56:58.077Z,27.86
2022-08-18T12:59:20.154Z,27.53
2022-08-18T13:01:41.848Z,27.71
2022-08-18T13:04:12.949Z,27.82
2022-08-18T13:06:40.797Z,27.91
2022-08-18T13:09:16.735Z,27.88
2022-08-18T13:11:49.312Z,27.90
2022-08-18T13:14:12.035Z,28.00
2022-08-18T13:16:47.825Z,28.08
2022-08-18T13:19:16.348Z,28.28
2022-08-18T13:21:41.458Z,28.49
2022-08-18T13:24:05.227Z,28.39
2022-08-18T13:26:36.044Z,28.32
2022-08-18T13:28:58.608Z,28.41
2022-08-18T13:31:20.353Z,28.39
2022-08-18T13:33:59.775Z,28.46
2022-08-18T13:36:22.661Z,28.54
2022-08-18T13:38:44.115Z,28.79
2022-08-18T13:41:06.402Z,28.86
2022-08-18T13:43:34.509Z,29.00
2022-08-18T13:45:56.568Z,29.61
2022-08-18T13:48:18.101Z,29.60
2022-08-18T13:50:40.357Z,29.79
2022-08-18T13:53:03.273Z,30.25
2022-08-18T13:55:29.115Z,30.44
2022-08-18T13:57:50.660Z,30.44
2022-08-18T14:00:29.708Z,30.61
2022-08-18T14:02:55.360Z,30.83
2022-08-18T14:05:18.109Z,31.15
2022-08-18T14:07:43.033Z,31.38
2022-08-18T14:10:08.186Z,31.50
2022-08-18T14:12:37.506Z,31.66
2022-08-18T14:15:01.605Z,31.80
2022-08-18T14:17:25.462Z,31.51
2022-08-18T14:20:05.673Z,31.61
2022-08-18T14:22:51.425Z,31.84
2022-08-18T14:25:33.265Z,31.48
2022-08-18T14:27:56.784Z,31.65
2022-08-18T14:30:19.029Z,31.63
2022-08-18T14:32:49.226Z,31.10
2022-08-18T14:35:33.835Z,31.43
2022-08-18T14:37:56.279Z,31.68
2022-08-18T14:40:20.171Z,31.57
2022-08-18T14:42:54.332Z,31.69
2022-08-18T14:51:10.309Z,31.95
2022-08-18T14:56:22.646Z,32.04
2022-08-18T14:58:49.785Z,31.99
2022-08-18T15:01:13.339Z,32.15
2022-08-18T15:03:38.919Z,32.27
2022-08-18T15:06:04.496Z,32.05
2022-08-18T15:08:26.704Z,32.02
2022-08-18T15:10:48.824Z,32.19
2022-08-18T15:13:13.083Z,32.22
2022-08-18T15:15:50.852Z,32.17
2022-08-18T15:18:13.413Z,32.08
2022-08-18T15:20:54.955Z,32.15
2022-08-18T15:23:35.118Z,31.97
2022-08-18T15:25:56.794Z,31.80
2022-08-18T15:28:23.732Z,31.43
2022-08-18T15:30:51.063Z,31.20
2022-08-18T15:33:16.765Z,30.93
2022-08-18T15:35:44.186Z,30.64
2022-08-18T15:38:07.021Z,30.80
2022-08-18T15:40:30.751Z,30.82
2022-08-18T15:43:03.680Z,30.55
2022-08-18T15:45:28.582Z,30.55
2022-08-18T15:47:56.951Z,30.50
2022-08-18T15:50:26.052Z,30.27
2022-08-18T15:53:08.022Z,29.92
2022-08-18T15:55:35.896Z,29.91
2022-08-18T15:57:59.748Z,29.66
2022-08-18T16:00:25.012Z,29.42
2022-08-18T16:02:53.482Z,29.07
2022-08-18T16:05:15.631Z,29.04
2022-08-18T16:07:41.009Z,28.87
2022-08-18T16:10:06.961Z,28.84
2022-08-18T16:12:28.457Z,28.62
2022-08-18T16:14:52.871Z,28.40
2022-08-18T16:17:23.607Z,28.50
2022-08-18T16:19:46.303Z,28.83
2022-08-18T16:22:07.764Z,29.08
2022-08-18T16:24:29.224Z,29.13
2022-08-18T16:26:51.965Z,29.34
2022-08-18T16:29:13.458Z,29.48
2022-08-18T16:31:34.933Z,29.41
2022-08-18T16:33:57.865Z,29.38
2022-08-18T16:36:19.617Z,29.24
2022-08-18T16:38:43.290Z,29.33
2022-08-18T16:41:14.939Z,29.33
2022-08-18T16:43:37.620Z,29.24
2022-08-18T16:45:59.612Z,29.26
2022-08-18T16:48:21.812Z,29.23
2022-08-18T16:50:45.312Z,29.07
2022-08-18T16:53:06.844Z,28.93
2022-08-18T16:55:28.381Z,28.72
2022-08-18T16:58:10.669Z,28.70
2022-08-18T17:00:54.908Z,28.47
2022-08-18T17:03:35.574Z,28.23
2022-08-18T17:06:06.549Z,27.85
2022-08-18T17:08:28.410Z,27.60
2022-08-18T17:10:50.324Z,27.40
2022-08-18T17:13:11.865Z,27.21
2022-08-18T17:15:33.376Z,27.17
2022-08-18T17:17:54.896Z,27.02
2022-08-18T17:20:18.822Z,26.91
2022-08-18T17:22:40.740Z,26.93
2022-08-18T17:25:03.290Z,26.76
2022-08-18T17:27:37.302Z,26.71
2022-08-18T17:30:13.763Z,26.50
2022-08-18T17:32:53.255Z,26.36
2022-08-18T17:35:36.830Z,26.14
2022-08-18T17:38:07.190Z,25.98
2022-08-18T17:40:48.014Z,25.80
2022-08-18T17:43:13.889Z,25.55
2022-08-18T17:45:36.032Z,25.52
2022-08-18T17:48:11.751Z,25.42
2022-08-18T17:50:56.079Z,25.31
2022-08-18T17:53:21.726Z,25.22
2022-08-18T17:55:49.739Z,25.04
2022-08-18T17:58:29.613Z,24.79
2022-08-18T18:00:51.068Z,24.83
2022-08-18T18:03:13.421Z,24.77
2022-08-18T18:05:43.053Z,24.79
2022-08-18T18:08:05.510Z,24.64
2022-08-18T18:11:03.890Z,24.49
2022-08-18T18:13:29.242Z,24.47
2022-08-18T18:15:53.854Z,24.38
2022-08-18T18:18:41.757Z,24.33
2022-08-18T18:21:19.721Z,24.28
2022-08-18T18:23:48.775Z,24.26
2022-08-18T18:26:22.760Z,24.24
2022-08-18T18:28:44.270Z,24.31
2022-08-18T18:31:35.112Z,24.28
2022-08-18T18:34:06.856Z,24.21
2022-08-18T18:36:47.667Z,24.20
2022-08-18T18:39:17.160Z,24.13
2022-08-18T18:41:40.563Z,24.08
2022-08-18T18:44:09.414Z,24.04
2022-08-18T18:46:35.254Z,23.98
2022-08-18T18:48:56.632Z,23.97
2022-08-18T18:51:33.679Z,23.95
2022-08-18T18:54:14.984Z,24.01
2022-08-18T18:56:52.679Z,23.94
2022-08-18T18:59:25.791Z,23.83
2022-08-18T19:02:34.161Z,23.72
2022-08-18T19:05:32.620Z,23.64
2022-08-18T19:08:35.252Z,23.58
2022-08-18T19:11:20.872Z,23.63
2022-08-18T19:14:09.455Z,23.50
2022-08-18T19:19:46.703Z,23.33
2022-08-18T19:22:19.371Z,23.33
2022-08-18T19:25:07.449Z,23.29
2022-08-18T19:27:56.238Z,23.23
2022-08-18T19:31:07.751Z,23.07
2022-08-18T19:33:49.669Z,23.01
2022-08-18T19:36:54.882Z,22.96
2022-08-18T19:39:47.289Z,22.88
2022-08-18T19:42:31.596Z,22.84
2022-08-18T19:45:31.843Z,22.79
2022-08-18T19:48:15.155Z,22.65
2022-08-18T19:51:04.054Z,22.56
2022-08-18T19:54:25.073Z,22.45
2022-08-18T19:57:24.878Z,22.42
2022-08-18T20:00:23.520Z,22.36
2022-08-18T20:03:33.458Z,22.28
2022-08-18T20:06:35.875Z,22.27
2022-08-18T20:09:35.971Z,22.22
2022-08-18T20:14:54.225Z,22.05
2022-08-18T20:17:23.598Z,22.02
2022-08-18T20:20:15.107Z,21.96
2022-08-18T20:22:48.747Z,21.91
2022-08-18T20:25:53.052Z,21.86
2022-08-18T20:28:40.694Z,21.76
2022-08-18T20:31:47.336Z,21.65
2022-08-18T20:34:30.767Z,21.59
2022-08-18T20:37:03.025Z,21.60
2022-08-18T20:40:03.655Z,21.58
2022-08-18T20:42:55.928Z,21.47
2022-08-18T20:45:48.692Z,21.42
2022-08-18T20:51:58.342Z,21.38
2022-08-18T20:55:00.490Z,21.42
2022-08-18T20:57:55.568Z,21.36
2022-08-18T21:00:27.818Z,21.35
2022-08-18T21:03:20.292Z,21.35
2022-08-18T21:08:54.362Z,21.24
2022-08-18T21:11:29.684Z,21.21
2022-08-18T21:13:59.599Z,21.07
2022-08-18T21:16:38.639Z,21.01
2022-08-18T21:19:11.343Z,20.97
2022-08-18T21:21:51.735Z,21.04
2022-08-18T21:24:35.666Z,20.99
2022-08-18T21:27:08.245Z,20.96
2022-08-18T21:29:38.248Z,20.93
2022-08-18T21:32:17.798Z,20.86
2022-08-18T21:34:48.055Z,20.90
2022-08-18T21:37:28.062Z,20.80
2022-08-18T21:48:17.767Z,20.69
2022-08-18T21:51:00.966Z,20.59
2022-08-18T21:53:29.773Z,20.63
2022-08-18T21:55:58.055Z,20.71
2022-08-18T21:58:46.130Z,20.67
2022-08-18T22:01:17.804Z,20.61
2022-08-18T22:04:18.112Z,20.64
2022-08-18T22:10:20.969Z,20.73
2022-08-18T22:13:16.931Z,20.80
2022-08-18T22:15:52.767Z,20.76
2022-08-18T22:18:21.871Z,20.80
2022-08-18T22:20:50.399Z,20.82
2022-08-18T22:26:24.964Z,20.71
2022-08-18T22:29:16.770Z,20.69
2022-08-18T22:31:49.117Z,20.60
2022-08-18T22:34:27.401Z,20.59
2022-08-18T22:37:06.331Z,20.64
2022-08-18T22:39:55.340Z,20.67
2022-08-18T22:42:30.400Z,20.65
2022-08-18T22:45:04.918Z,20.68
2022-08-18T22:47:45.135Z,20.72
2022-08-18T22:50:16.377Z,20.71
2022-08-18T22:52:51.296Z,20.80
2022-08-18T22:55:28.669Z,20.66
2022-08-18T23:00:45.265Z,20.53
2022-08-18T23:03:18.692Z,20.53
2022-08-18T23:05:58.138Z,20.58
2022-08-18T23:08:55.355Z,20.58
2022-08-18T23:11:30.051Z,20.56
2022-08-18T23:14:06.137Z,20.62
2022-08-18T23:16:32.894Z,20.56
2022-08-18T23:18:57.970Z,20.49
2022-08-18T23:21:34.981Z,20.44
2022-08-18T23:24:06.368Z,20.47
2022-08-18T23:26:58.640Z,20.37
2022-08-18T23:29:26.619Z,20.34
2022-08-18T23:31:55.000Z,20.35
2022-08-18T23:34:33.110Z,20.39
2022-08-18T23:39:49.847Z,20.36
2022-08-18T23:42:16.053Z,20.36
2022-08-18T23:44:52.207Z,20.29
2022-08-18T23:47:23.114Z,20.24
2022-08-18T23:50:12.895Z,20.19
2022-08-18T23:53:11.527Z,20.17
2022-08-18T23:55:38.856Z,20.18
2022-08-18T23:58:14.014Z,20.24
